Klamath Falls, OR

6:47 AM PDT on September 23, 2014 (GMT -0700)
Siskiyou County | Change Station
CLOSE
Current Station
Airport
Location: Montague,
Elevation: 2648 ft
Nearby Weather Stations
Active Advisory: Fire Weather Warning

Elev 2648 ft 41.78 °N, 122.47 °W | Updated 54 minutes ago

Partly Cloudy
Partly Cloudy
57 °F
Feels Like 57 °F
N
5
Wind Variable Wind from NNE

Today
High -- | Low -- °F
--% Chance of Precip.
Yesterday
High -- | Low -- °F
Precip. -- in
6:55 AM 7:02 PM
Waning Crescent, 0% visible
Pressure 29.93 in
Visibility 10.0 miles
Clouds Clear
Dew Point 43 °F
Humidity 59%
Rainfall 0.00 in
Snow Depth 0 in , 0 in , 0 in
UV 0 out of 12
Pollen 3.70 out of 12
Air Quality Not available.
Flu Activity Not available.
METAR KSIY 231253Z AUTO 03004KT 10SM CLR 14/06 A2996 RMK AO2 SLP133 T01390061

More Conditions Fewer Conditions

Pressure 29.93 in
Visibility 10.0 miles
Clouds Clear
Dew Point 43 °F
Humidity 59%
Rainfall 0.00 in
Snow Depth 0 in , 0 in , 0 in
UV 0 out of 12
Pollen 3.70 out of 12
Air Quality Not available.
Flu Activity Not available.
METAR KSIY 231253Z AUTO 03004KT 10SM CLR 14/06 A2996 RMK AO2 SLP133 T01390061

More Conditions Fewer Conditions

10-Day Weather Forecast

Almanac

Astronomy

Sep. 23, 2014 Rise Set
Actual Time 6:55 AM PDT 7:02 PM PDT
Civil Twilight 6:27 AM PDT 7:30 PM PDT
Nautical Twilight 5:54 AM PDT 8:03 PM PDT
Astronomical Twilight 5:21 AM PDT 8:36 PM PDT
Moon 6:24 AM PDT 6:43 PM PDT
Length of Visible Light 13h 02m
Length of Day
12h 06m
Tomorrow will be 2m 50s shorter.
Waning Crescent, 0% of the Moon is Illuminated
Today
Waning Crescent
Sep 24
New
Oct 1
First Quarter
Oct 8
Full
Oct 15
Last Quarter

Today's Extremes

State Highs State Lows

Community

WunderPhotos

Upload Photos

1,755,669 photos uploaded!

WunderBlogs® & News

Nearby

Snow Depth

Station Depth Elevation
New Crescent Lake 0 in 4800 ft
Seine Creek 0 in 2000 ft
Chemult Alternate 0 in 4760 ft
Fish Lake 0 in 4665 ft
Mt. Howard 0 in 7910 ft

Earthquake Activity

City Distance Mag. Time & Date
No recent earthquake activity has been reported nearby.
Minimum magnitude displayed is 2.5.

Coastal Water Temperatures

Place Temperature
No Stations Reporting

Nearby Weather Stations